NSFA

Faleolo International Airport

Apia, Samoa
TAF NSFA 191711Z 1918/2018 09008KT 9999 -SHRA SCT020 SCT040 PROB40 TEMPO 1918/2002 3000 TSRA BKN015 BKN040 PROB30 TEMPO 2002/2010 5000 SHRA BKN015 BKN040
Issued Valid From Valid To
Sep-19 @ 17:11 UTC
(6 hours ago)
Sep-19 @ 18:00 UTC
(5 hours ago)
Sep-20 @ 18:00 UTC
(in 19 hours)
Sep-19 @ 18:00 to Sep-20 @ 18:00
TAF NSFA 191711Z 1918/2018 09008KT 9999 -SHRA SCT020 SCT040
Wind Visibility Clouds Conditions
90° at 8 knots 10,000+ meters
  • Scattered at 2,000' AGL
  • Scattered at 4,000' AGL
  • Light Rain
Temporary  (Probability 40%) Sep-19 @ 18:00 to Sep-20 @ 02:00
PROB40 TEMPO 1918/2002 3000 TSRA BKN015 BKN040
Visibility Clouds Conditions
2,993 meters
  • Broken at 1,500' AGL
  • Broken at 4,000' AGL
  • Thunderstorm
  • Rain
Temporary  (Probability 30%) Sep-20 @ 02:00 to Sep-20 @ 10:00
PROB30 TEMPO 2002/2010 5000 SHRA BKN015 BKN040
Visibility Clouds Conditions
5,005 meters
  • Broken at 1,500' AGL
  • Broken at 4,000' AGL
  • Rain
TAF NSFA 191711Z 1918/2018 09008KT 9999 -SHRA SCT020 SCT040 PROB40 TEMPO 1918/2002 3000 TSRA BKN015 BKN040 PROB30 TEMPO 2002/2010 5000 SHRA BKN015 BKN040
Issued Sep-19 @ 17:11 UTC
(6 hours ago)
Valid From Sep-19 @ 18:00 UTC
(5 hours ago)
Valid To Sep-20 @ 18:00 UTC
(in 19 hours)
Sep-19 @ 18:00 - Sep-20 @ 18:00
Wind Visibility
90° at 8 knots 10,000+ meters
Clouds
  • Scattered at 2,000' AGL
  • Scattered at 4,000' AGL
Conditions
  • Light Rain
Probability 40% Temporary Sep-19 @ 18:00 - Sep-20 @ 02:00
Clouds
  • Broken at 1,500' AGL
  • Broken at 4,000' AGL
Conditions
  • Thunderstorm
  • Rain
Probability 30% Temporary Sep-20 @ 02:00 - Sep-20 @ 10:00
Clouds
  • Broken at 1,500' AGL
  • Broken at 4,000' AGL
Conditions
  • Rain